sensor_id;sensor_type;location;lat;lon;timestamp;temperature;humidity
17307;DHT22;8771;48.048;7.682;2022-12-18T00:04:20;-2.60;82.90
17307;DHT22;8771;48.048;7.682;2022-12-18T00:09:24;-2.60;82.90
17307;DHT22;8771;48.048;7.682;2022-12-18T00:14:26;-2.60;82.90
17307;DHT22;8771;48.048;7.682;2022-12-18T00:19:28;-2.60;82.90
17307;DHT22;8771;48.048;7.682;2022-12-18T00:24:32;-2.60;82.80
17307;DHT22;8771;48.048;7.682;2022-12-18T00:29:34;-2.50;82.80
17307;DHT22;8771;48.048;7.682;2022-12-18T00:34:36;-2.50;82.80
17307;DHT22;8771;48.048;7.682;2022-12-18T00:39:39;-2.50;82.90
17307;DHT22;8771;48.048;7.682;2022-12-18T00:44:41;-2.50;82.80
17307;DHT22;8771;48.048;7.682;2022-12-18T00:49:43;-2.50;82.60
17307;DHT22;8771;48.048;7.682;2022-12-18T00:54:46;-2.60;82.80
17307;DHT22;8771;48.048;7.682;2022-12-18T00:59:48;-2.70;82.90
17307;DHT22;8771;48.048;7.682;2022-12-18T01:04:50;-2.60;83.00
17307;DHT22;8771;48.048;7.682;2022-12-18T01:09:53;-2.50;82.90
17307;DHT22;8771;48.048;7.682;2022-12-18T01:14:55;-2.50;82.80
17307;DHT22;8771;48.048;7.682;2022-12-18T01:19:57;-2.40;82.70
17307;DHT22;8771;48.048;7.682;2022-12-18T01:25:00;-2.40;82.70
17307;DHT22;8771;48.048;7.682;2022-12-18T01:30:03;-2.40;82.70
17307;DHT22;8771;48.048;7.682;2022-12-18T01:35:06;-2.40;82.60
17307;DHT22;8771;48.048;7.682;2022-12-18T01:40:10;-2.40;82.50
17307;DHT22;8771;48.048;7.682;2022-12-18T01:45:26;-2.40;82.70
17307;DHT22;8771;48.048;7.682;2022-12-18T01:50:31;-2.40;82.70
17307;DHT22;8771;48.048;7.682;2022-12-18T01:55:39;-2.40;82.60
17307;DHT22;8771;48.048;7.682;2022-12-18T02:00:42;-2.40;82.90
17307;DHT22;8771;48.048;7.682;2022-12-18T02:05:47;-2.30;82.60
17307;DHT22;8771;48.048;7.682;2022-12-18T02:11:02;-2.30;82.50
17307;DHT22;8771;48.048;7.682;2022-12-18T02:16:10;-2.20;82.50
17307;DHT22;8771;48.048;7.682;2022-12-18T02:21:23;-2.20;82.50
17307;DHT22;8771;48.048;7.682;2022-12-18T02:26:30;-2.20;82.40
17307;DHT22;8771;48.048;7.682;2022-12-18T02:31:38;-2.20;82.50
17307;DHT22;8771;48.048;7.682;2022-12-18T02:36:43;-2.20;82.50
17307;DHT22;8771;48.048;7.682;2022-12-18T02:41:48;-2.20;82.50
17307;DHT22;8771;48.048;7.682;2022-12-18T02:46:52;-2.20;82.50
17307;DHT22;8771;48.048;7.682;2022-12-18T02:52:02;-2.20;82.50
17307;DHT22;8771;48.048;7.682;2022-12-18T02:57:14;-2.20;82.60
17307;DHT22;8771;48.048;7.682;2022-12-18T03:02:22;-2.20;82.50
17307;DHT22;8771;48.048;7.682;2022-12-18T03:07:35;-2.20;82.60
17307;DHT22;8771;48.048;7.682;2022-12-18T03:12:43;-2.20;82.60
17307;DHT22;8771;48.048;7.682;2022-12-18T03:17:51;-2.30;82.50
17307;DHT22;8771;48.048;7.682;2022-12-18T03:22:59;-2.30;82.50
17307;DHT22;8771;48.048;7.682;2022-12-18T03:28:05;-2.30;82.60
17307;DHT22;8771;48.048;7.682;2022-12-18T03:33:13;-2.30;82.70
17307;DHT22;8771;48.048;7.682;2022-12-18T03:38:18;-2.30;82.70
17307;DHT22;8771;48.048;7.682;2022-12-18T03:43:31;-2.30;82.50
17307;DHT22;8771;48.048;7.682;2022-12-18T03:48:38;-2.30;82.50
17307;DHT22;8771;48.048;7.682;2022-12-18T03:53:47;-2.30;82.90
17307;DHT22;8771;48.048;7.682;2022-12-18T03:58:52;-2.30;82.50
17307;DHT22;8771;48.048;7.682;2022-12-18T04:03:57;-2.40;82.50
17307;DHT22;8771;48.048;7.682;2022-12-18T04:09:01;-2.40;82.50
17307;DHT22;8771;48.048;7.682;2022-12-18T04:14:04;-2.40;82.50
17307;DHT22;8771;48.048;7.682;2022-12-18T04:19:06;-2.50;82.50
17307;DHT22;8771;48.048;7.682;2022-12-18T04:24:08;-2.50;82.60
17307;DHT22;8771;48.048;7.682;2022-12-18T04:29:11;-2.50;82.70
17307;DHT22;8771;48.048;7.682;2022-12-18T04:34:13;-2.50;82.70
17307;DHT22;8771;48.048;7.682;2022-12-18T04:39:15;-2.60;82.60
17307;DHT22;8771;48.048;7.682;2022-12-18T04:44:21;-2.50;82.60
17307;DHT22;8771;48.048;7.682;2022-12-18T04:49:23;-2.50;82.70
17307;DHT22;8771;48.048;7.682;2022-12-18T04:54:25;-2.50;82.60
17307;DHT22;8771;48.048;7.682;2022-12-18T04:59:29;-2.60;82.50
17307;DHT22;8771;48.048;7.682;2022-12-18T05:04:31;-2.60;82.60
17307;DHT22;8771;48.048;7.682;2022-12-18T05:09:33;-2.60;82.80
17307;DHT22;8771;48.048;7.682;2022-12-18T05:14:36;-2.60;82.70
17307;DHT22;8771;48.048;7.682;2022-12-18T05:19:38;-2.60;82.60
17307;DHT22;8771;48.048;7.682;2022-12-18T05:24:40;-2.60;82.60
17307;DHT22;8771;48.048;7.682;2022-12-18T05:29:43;-2.60;82.50
17307;DHT22;8771;48.048;7.682;2022-12-18T05:34:45;-2.60;82.50
17307;DHT22;8771;48.048;7.682;2022-12-18T05:39:47;-2.70;82.60
17307;DHT22;8771;48.048;7.682;2022-12-18T05:44:50;-2.70;82.70
17307;DHT22;8771;48.048;7.682;2022-12-18T05:49:52;-2.70;82.70
17307;DHT22;8771;48.048;7.682;2022-12-18T05:54:54;-2.70;82.60
17307;DHT22;8771;48.048;7.682;2022-12-18T05:59:57;-2.70;83.40
17307;DHT22;8771;48.048;7.682;2022-12-18T06:04:59;-2.70;82.80
17307;DHT22;8771;48.048;7.682;2022-12-18T06:10:01;-2.60;82.60
17307;DHT22;8771;48.048;7.682;2022-12-18T06:15:05;-2.70;82.50
17307;DHT22;8771;48.048;7.682;2022-12-18T06:20:08;-2.70;82.60
17307;DHT22;8771;48.048;7.682;2022-12-18T06:25:10;-2.60;82.70
17307;DHT22;8771;48.048;7.682;2022-12-18T06:30:14;-2.60;82.50
17307;DHT22;8771;48.048;7.682;2022-12-18T06:35:16;-2.60;82.50
17307;DHT22;8771;48.048;7.682;2022-12-18T06:40:18;-2.50;82.40
17307;DHT22;8771;48.048;7.682;2022-12-18T06:45:22;-2.70;82.40
17307;DHT22;8771;48.048;7.682;2022-12-18T06:50:24;-2.70;82.60
17307;DHT22;8771;48.048;7.682;2022-12-18T06:55:26;-2.70;82.50
17307;DHT22;8771;48.048;7.682;2022-12-18T07:00:30;-2.70;82.50
17307;DHT22;8771;48.048;7.682;2022-12-18T07:05:32;-2.90;82.50
17307;DHT22;8771;48.048;7.682;2022-12-18T07:10:34;-3.10;82.90
17307;DHT22;8771;48.048;7.682;2022-12-18T07:15:37;-3.20;82.80
17307;DHT22;8771;48.048;7.682;2022-12-18T07:20:40;-3.20;83.10
17307;DHT22;8771;48.048;7.682;2022-12-18T07:25:42;-3.20;83.10
17307;DHT22;8771;48.048;7.682;2022-12-18T07:30:45;-3.20;82.90
17307;DHT22;8771;48.048;7.682;2022-12-18T07:35:47;-3.30;82.80
17307;DHT22;8771;48.048;7.682;2022-12-18T07:40:49;-3.40;83.10
17307;DHT22;8771;48.048;7.682;2022-12-18T07:45:52;-3.30;83.10
17307;DHT22;8771;48.048;7.682;2022-12-18T07:50:58;-3.30;82.90
17307;DHT22;8771;48.048;7.682;2022-12-18T07:56:01;-3.20;82.90
17307;DHT22;8771;48.048;7.682;2022-12-18T08:01:07;-3.10;82.80
17307;DHT22;8771;48.048;7.682;2022-12-18T08:06:10;-3.00;82.80
17307;DHT22;8771;48.048;7.682;2022-12-18T08:11:12;-3.00;82.60
17307;DHT22;8771;48.048;7.682;2022-12-18T08:16:15;-2.90;82.60
17307;DHT22;8771;48.048;7.682;2022-12-18T08:21:19;-2.90;82.50
17307;DHT22;8771;48.048;7.682;2022-12-18T08:26:22;-2.90;82.50
17307;DHT22;8771;48.048;7.682;2022-12-18T08:31:26;-2.70;82.50
17307;DHT22;8771;48.048;7.682;2022-12-18T08:36:28;-2.70;82.20
17307;DHT22;8771;48.048;7.682;2022-12-18T08:41:30;-2.60;82.20
17307;DHT22;8771;48.048;7.682;2022-12-18T08:46:35;-2.60;82.00
17307;DHT22;8771;48.048;7.682;2022-12-18T08:51:38;-2.60;82.00
17307;DHT22;8771;48.048;7.682;2022-12-18T08:56:39;-2.60;81.90
17307;DHT22;8771;48.048;7.682;2022-12-18T09:01:43;-2.60;82.00
17307;DHT22;8771;48.048;7.682;2022-12-18T09:06:46;-2.70;82.00
17307;DHT22;8771;48.048;7.682;2022-12-18T09:11:48;-2.70;82.20
17307;DHT22;8771;48.048;7.682;2022-12-18T09:16:51;-2.60;82.20
17307;DHT22;8771;48.048;7.682;2022-12-18T09:21:53;-2.50;82.00
17307;DHT22;8771;48.048;7.682;2022-12-18T09:26:55;-2.40;81.90
17307;DHT22;8771;48.048;7.682;2022-12-18T09:31:58;-2.30;81.80
17307;DHT22;8771;48.048;7.682;2022-12-18T09:37:00;-2.10;81.60
17307;DHT22;8771;48.048;7.682;2022-12-18T09:42:03;-1.90;81.60
17307;DHT22;8771;48.048;7.682;2022-12-18T09:47:10;-1.70;81.40
17307;DHT22;8771;48.048;7.682;2022-12-18T09:52:17;-1.60;81.20
17307;DHT22;8771;48.048;7.682;2022-12-18T09:57:23;-1.40;81.10
17307;DHT22;8771;48.048;7.682;2022-12-18T10:02:30;-1.30;81.90
17307;DHT22;8771;48.048;7.682;2022-12-18T10:07:43;-1.30;81.10
17307;DHT22;8771;48.048;7.682;2022-12-18T10:12:54;-1.30;81.00
17307;DHT22;8771;48.048;7.682;2022-12-18T10:18:06;-1.30;81.20
17307;DHT22;8771;48.048;7.682;2022-12-18T10:23:19;-1.30;81.30
17307;DHT22;8771;48.048;7.682;2022-12-18T10:28:22;-1.50;81.30
17307;DHT22;8771;48.048;7.682;2022-12-18T10:33:29;-1.60;81.60
17307;DHT22;8771;48.048;7.682;2022-12-18T10:38:32;-1.50;81.80
17307;DHT22;8771;48.048;7.682;2022-12-18T10:43:35;-1.50;81.60
17307;DHT22;8771;48.048;7.682;2022-12-18T10:48:49;-1.40;81.60
17307;DHT22;8771;48.048;7.682;2022-12-18T10:53:54;-1.30;81.40
17307;DHT22;8771;48.048;7.682;2022-12-18T10:58:59;-1.20;81.30
17307;DHT22;8771;48.048;7.682;2022-12-18T11:04:08;-1.10;81.20
17307;DHT22;8771;48.048;7.682;2022-12-18T11:09:19;-1.00;81.20
17307;DHT22;8771;48.048;7.682;2022-12-18T11:14:24;-1.00;81.10
17307;DHT22;8771;48.048;7.682;2022-12-18T11:19:33;-0.90;81.10
17307;DHT22;8771;48.048;7.682;2022-12-18T11:24:35;-0.70;81.00
17307;DHT22;8771;48.048;7.682;2022-12-18T11:29:39;-0.50;81.00
17307;DHT22;8771;48.048;7.682;2022-12-18T11:34:46;-0.30;80.90
17307;DHT22;8771;48.048;7.682;2022-12-18T11:39:52;-0.20;80.80
17307;DHT22;8771;48.048;7.682;2022-12-18T11:44:59;0.00;80.70
17307;DHT22;8771;48.048;7.682;2022-12-18T11:50:08;0.30;80.70
17307;DHT22;8771;48.048;7.682;2022-12-18T11:55:16;0.40;80.50
17307;DHT22;8771;48.048;7.682;2022-12-18T12:00:22;0.50;80.50
17307;DHT22;8771;48.048;7.682;2022-12-18T12:05:38;0.60;80.40
17307;DHT22;8771;48.048;7.682;2022-12-18T12:10:50;0.60;80.50
17307;DHT22;8771;48.048;7.682;2022-12-18T12:16:07;0.70;80.70
17307;DHT22;8771;48.048;7.682;2022-12-18T12:21:17;0.60;80.70
17307;DHT22;8771;48.048;7.682;2022-12-18T12:26:27;0.50;81.60
17307;DHT22;8771;48.048;7.682;2022-12-18T12:31:47;0.50;80.90
17307;DHT22;8771;48.048;7.682;2022-12-18T12:37:11;0.50;81.10
17307;DHT22;8771;48.048;7.682;2022-12-18T12:42:22;0.40;81.10
17307;DHT22;8771;48.048;7.682;2022-12-18T12:47:46;0.40;81.20
17307;DHT22;8771;48.048;7.682;2022-12-18T12:52:53;0.40;81.20
17307;DHT22;8771;48.048;7.682;2022-12-18T12:58:03;0.50;81.20
17307;DHT22;8771;48.048;7.682;2022-12-18T13:03:12;0.50;81.10
17307;DHT22;8771;48.048;7.682;2022-12-18T13:08:25;0.60;81.20
17307;DHT22;8771;48.048;7.682;2022-12-18T13:13:48;0.70;81.10
17307;DHT22;8771;48.048;7.682;2022-12-18T13:18:50;0.70;81.10
17307;DHT22;8771;48.048;7.682;2022-12-18T13:23:55;0.70;81.20
17307;DHT22;8771;48.048;7.682;2022-12-18T13:28:59;0.80;81.00
17307;DHT22;8771;48.048;7.682;2022-12-18T13:34:14;0.90;81.00
17307;DHT22;8771;48.048;7.682;2022-12-18T13:39:33;1.00;80.90
17307;DHT22;8771;48.048;7.682;2022-12-18T13:44:38;0.90;80.80
17307;DHT22;8771;48.048;7.682;2022-12-18T13:49:43;1.00;80.90
17307;DHT22;8771;48.048;7.682;2022-12-18T13:54:49;0.90;80.80
17307;DHT22;8771;48.048;7.682;2022-12-18T13:59:52;0.90;80.90
17307;DHT22;8771;48.048;7.682;2022-12-18T14:04:54;0.90;81.10
17307;DHT22;8771;48.048;7.682;2022-12-18T14:09:59;0.90;81.20
17307;DHT22;8771;48.048;7.682;2022-12-18T14:15:03;0.90;81.20
17307;DHT22;8771;48.048;7.682;2022-12-18T14:20:13;0.90;81.30
17307;DHT22;8771;48.048;7.682;2022-12-18T14:25:19;0.90;81.40
17307;DHT22;8771;48.048;7.682;2022-12-18T14:30:29;0.80;81.30
17307;DHT22;8771;48.048;7.682;2022-12-18T14:35:32;0.80;81.40
17307;DHT22;8771;48.048;7.682;2022-12-18T14:40:35;0.70;81.50
17307;DHT22;8771;48.048;7.682;2022-12-18T14:45:39;0.70;81.60
17307;DHT22;8771;48.048;7.682;2022-12-18T14:50:42;0.60;81.60
17307;DHT22;8771;48.048;7.682;2022-12-18T14:55:46;0.60;81.70
17307;DHT22;8771;48.048;7.682;2022-12-18T15:00:49;0.60;81.70
17307;DHT22;8771;48.048;7.682;2022-12-18T15:05:51;0.60;81.70
17307;DHT22;8771;48.048;7.682;2022-12-18T15:10:55;0.60;81.70
17307;DHT22;8771;48.048;7.682;2022-12-18T15:15:59;0.50;81.70
17307;DHT22;8771;48.048;7.682;2022-12-18T15:21:09;0.50;81.80
17307;DHT22;8771;48.048;7.682;2022-12-18T15:26:14;0.40;81.80
17307;DHT22;8771;48.048;7.682;2022-12-18T15:31:28;0.40;81.90
17307;DHT22;8771;48.048;7.682;2022-12-18T15:36:31;0.40;82.00
17307;DHT22;8771;48.048;7.682;2022-12-18T15:41:38;0.30;81.90
17307;DHT22;8771;48.048;7.682;2022-12-18T15:46:40;0.30;82.00
17307;DHT22;8771;48.048;7.682;2022-12-18T15:51:42;0.20;82.80
17307;DHT22;8771;48.048;7.682;2022-12-18T15:56:45;0.20;82.10
17307;DHT22;8771;48.048;7.682;2022-12-18T16:02:15;0.20;82.10
17307;DHT22;8771;48.048;7.682;2022-12-18T16:07:18;0.10;82.10
17307;DHT22;8771;48.048;7.682;2022-12-18T16:12:22;0.10;82.10
17307;DHT22;8771;48.048;7.682;2022-12-18T16:17:25;0.00;82.20
17307;DHT22;8771;48.048;7.682;2022-12-18T16:22:29;0.00;82.20
17307;DHT22;8771;48.048;7.682;2022-12-18T16:27:32;0.00;82.20
17307;DHT22;8771;48.048;7.682;2022-12-18T16:32:34;0.00;82.20
17307;DHT22;8771;48.048;7.682;2022-12-18T16:37:36;0.00;82.20
17307;DHT22;8771;48.048;7.682;2022-12-18T16:42:41;0.00;82.20
17307;DHT22;8771;48.048;7.682;2022-12-18T16:47:43;-0.10;82.20
17307;DHT22;8771;48.048;7.682;2022-12-18T16:52:45;-0.10;82.10
17307;DHT22;8771;48.048;7.682;2022-12-18T16:57:48;0.00;82.10
17307;DHT22;8771;48.048;7.682;2022-12-18T17:02:50;0.00;82.10
17307;DHT22;8771;48.048;7.682;2022-12-18T17:07:52;0.00;82.10
17307;DHT22;8771;48.048;7.682;2022-12-18T17:12:56;0.00;82.10
17307;DHT22;8771;48.048;7.682;2022-12-18T17:17:57;0.00;82.10
17307;DHT22;8771;48.048;7.682;2022-12-18T17:22:59;0.00;82.00
17307;DHT22;8771;48.048;7.682;2022-12-18T17:28:03;0.00;82.00
17307;DHT22;8771;48.048;7.682;2022-12-18T17:33:05;0.00;82.10
17307;DHT22;8771;48.048;7.682;2022-12-18T17:38:07;0.00;82.00
17307;DHT22;8771;48.048;7.682;2022-12-18T17:43:11;0.00;82.00
17307;DHT22;8771;48.048;7.682;2022-12-18T17:48:13;0.00;82.10
17307;DHT22;8771;48.048;7.682;2022-12-18T17:53:15;0.00;82.20
17307;DHT22;8771;48.048;7.682;2022-12-18T17:58:18;0.10;82.10
17307;DHT22;8771;48.048;7.682;2022-12-18T18:03:20;0.10;82.10
17307;DHT22;8771;48.048;7.682;2022-12-18T18:08:22;0.10;82.00
17307;DHT22;8771;48.048;7.682;2022-12-18T18:13:25;0.20;82.10
17307;DHT22;8771;48.048;7.682;2022-12-18T18:18:45;0.20;82.00
17307;DHT22;8771;48.048;7.682;2022-12-18T18:23:46;0.20;81.90
17307;DHT22;8771;48.048;7.682;2022-12-18T18:28:52;0.20;81.90
17307;DHT22;8771;48.048;7.682;2022-12-18T18:33:55;0.20;81.90
17307;DHT22;8771;48.048;7.682;2022-12-18T18:38:58;0.20;82.00
17307;DHT22;8771;48.048;7.682;2022-12-18T18:44:02;0.20;82.00
17307;DHT22;8771;48.048;7.682;2022-12-18T18:49:05;0.20;82.00
17307;DHT22;8771;48.048;7.682;2022-12-18T18:54:08;0.20;81.90
17307;DHT22;8771;48.048;7.682;2022-12-18T18:59:11;0.20;82.00
17307;DHT22;8771;48.048;7.682;2022-12-18T19:04:13;0.20;82.00
17307;DHT22;8771;48.048;7.682;2022-12-18T19:09:15;0.30;82.00
17307;DHT22;8771;48.048;7.682;2022-12-18T19:14:18;0.30;82.00
17307;DHT22;8771;48.048;7.682;2022-12-18T19:19:23;0.30;82.00
17307;DHT22;8771;48.048;7.682;2022-12-18T19:24:25;0.30;82.00
17307;DHT22;8771;48.048;7.682;2022-12-18T19:29:28;0.30;82.10
17307;DHT22;8771;48.048;7.682;2022-12-18T19:34:30;0.30;82.00
17307;DHT22;8771;48.048;7.682;2022-12-18T19:39:32;0.30;82.00
17307;DHT22;8771;48.048;7.682;2022-12-18T19:44:35;0.30;82.00
17307;DHT22;8771;48.048;7.682;2022-12-18T19:49:37;0.30;82.00
17307;DHT22;8771;48.048;7.682;2022-12-18T19:54:39;0.30;82.00
17307;DHT22;8771;48.048;7.682;2022-12-18T19:59:43;0.30;82.10
17307;DHT22;8771;48.048;7.682;2022-12-18T20:04:45;0.30;82.10
17307;DHT22;8771;48.048;7.682;2022-12-18T20:09:47;0.30;82.10
17307;DHT22;8771;48.048;7.682;2022-12-18T20:14:50;0.30;82.10
17307;DHT22;8771;48.048;7.682;2022-12-18T20:19:52;0.30;82.20
17307;DHT22;8771;48.048;7.682;2022-12-18T20:24:54;0.30;82.20
17307;DHT22;8771;48.048;7.682;2022-12-18T20:29:57;0.30;82.20
17307;DHT22;8771;48.048;7.682;2022-12-18T20:34:59;0.20;82.20
17307;DHT22;8771;48.048;7.682;2022-12-18T20:40:01;0.20;82.30
17307;DHT22;8771;48.048;7.682;2022-12-18T20:45:06;0.20;82.30
17307;DHT22;8771;48.048;7.682;2022-12-18T20:50:08;0.20;82.20
17307;DHT22;8771;48.048;7.682;2022-12-18T20:55:10;0.30;82.20
17307;DHT22;8771;48.048;7.682;2022-12-18T21:00:14;0.30;82.20
17307;DHT22;8771;48.048;7.682;2022-12-18T21:05:16;0.30;82.20
17307;DHT22;8771;48.048;7.682;2022-12-18T21:10:19;0.30;82.10
17307;DHT22;8771;48.048;7.682;2022-12-18T21:15:23;0.30;82.10
17307;DHT22;8771;48.048;7.682;2022-12-18T21:20:25;0.40;82.20
17307;DHT22;8771;48.048;7.682;2022-12-18T21:25:27;0.40;82.10
17307;DHT22;8771;48.048;7.682;2022-12-18T21:30:30;0.30;82.10
17307;DHT22;8771;48.048;7.682;2022-12-18T21:35:32;0.30;82.20
17307;DHT22;8771;48.048;7.682;2022-12-18T21:40:34;0.30;82.20
17307;DHT22;8771;48.048;7.682;2022-12-18T21:45:37;0.30;82.20
17307;DHT22;8771;48.048;7.682;2022-12-18T21:50:39;0.30;82.20
17307;DHT22;8771;48.048;7.682;2022-12-18T21:55:41;0.40;82.30
17307;DHT22;8771;48.048;7.682;2022-12-18T22:00:45;0.40;82.20
17307;DHT22;8771;48.048;7.682;2022-12-18T22:05:47;0.50;82.20
17307;DHT22;8771;48.048;7.682;2022-12-18T22:10:49;0.50;82.20
17307;DHT22;8771;48.048;7.682;2022-12-18T22:15:52;0.60;82.20
17307;DHT22;8771;48.048;7.682;2022-12-18T22:21:00;0.60;82.20
17307;DHT22;8771;48.048;7.682;2022-12-18T22:26:02;0.60;82.20
17307;DHT22;8771;48.048;7.682;2022-12-18T22:31:06;0.60;82.20
17307;DHT22;8771;48.048;7.682;2022-12-18T22:36:08;0.60;82.30
17307;DHT22;8771;48.048;7.682;2022-12-18T22:41:10;0.60;82.30
17307;DHT22;8771;48.048;7.682;2022-12-18T22:46:14;0.60;82.30
17307;DHT22;8771;48.048;7.682;2022-12-18T22:51:18;0.60;82.20
17307;DHT22;8771;48.048;7.682;2022-12-18T22:56:20;0.70;82.30
17307;DHT22;8771;48.048;7.682;2022-12-18T23:01:25;0.70;82.20
17307;DHT22;8771;48.048;7.682;2022-12-18T23:06:27;0.80;82.20
17307;DHT22;8771;48.048;7.682;2022-12-18T23:11:29;0.80;82.20
17307;DHT22;8771;48.048;7.682;2022-12-18T23:16:32;0.90;82.20
17307;DHT22;8771;48.048;7.682;2022-12-18T23:21:35;0.90;82.20
17307;DHT22;8771;48.048;7.682;2022-12-18T23:26:37;1.00;82.10
17307;DHT22;8771;48.048;7.682;2022-12-18T23:31:40;1.00;82.10
17307;DHT22;8771;48.048;7.682;2022-12-18T23:36:42;1.10;82.20
17307;DHT22;8771;48.048;7.682;2022-12-18T23:41:44;1.10;82.20
17307;DHT22;8771;48.048;7.682;2022-12-18T23:46:47;1.10;82.00
17307;DHT22;8771;48.048;7.682;2022-12-18T23:51:49;1.10;82.10
17307;DHT22;8771;48.048;7.682;2022-12-18T23:56:51;1.20;82.20
